.
WxDataArchive / Data Records for 2009-05-08
2009-05-07 May 2009 2009-05-09

Data Records for Friday, 08 May 2009

Time	Temp	Chill	HIndex	Humid	Dewpt	 Wind 	HiWind	WindDir	Rain 	Barom 
-----	----	-----	------	-----	-----	------	------	-------	-----	----- 
00:00	58.9	58.9	58.9	86	54.7	0	1	248	0.00	29.801 
00:05	58.7	58.7	58.7	86	54.5	0	1	248	0.00	29.801 
00:10	58.6	58.6	58.6	87	54.7	0	1	248	0.00	29.801 
00:15	58.6	58.6	58.6	87	54.7	0	1	248	0.00	29.798 
00:20	58.4	58.4	58.4	87	54.5	0	1	248	0.00	29.798 
00:25	58.4	58.4	58.4	87	54.5	0	1	248	0.00	29.798 
00:30	58.4	58.4	58.4	87	54.5	0	1	248	0.00	29.798 
00:35	58.4	58.4	58.4	87	54.5	0	1	248	0.00	29.798 
00:40	58.4	58.4	58.4	87	54.5	0	1	248	0.00	29.798 
00:45	58.4	58.4	58.4	87	54.5	0	2	248	0.00	29.794 
00:50	58.4	58.4	58.4	87	54.5	0	2	248	0.00	29.794 
00:55	58.4	58.4	58.4	87	54.5	0	1	248	0.00	29.794 
01:00	58.4	58.4	58.4	87	54.5	0	2	248	0.00	29.785 
01:05	58.4	58.4	58.4	87	54.5	0	2	248	0.00	29.785 
01:10	58.3	58.3	58.3	87	54.4	0	2	248	0.00	29.785 
01:15	58.3	58.3	58.3	87	54.4	0	0	---	0.00	29.781 
01:20	58.3	58.3	58.3	87	54.4	0	2	248	0.00	29.781 
01:25	58.3	58.3	58.3	88	54.8	0	1	248	0.00	29.781 
01:30	58.3	58.3	58.3	87	54.4	0	1	248	0.00	29.784 
01:35	58.3	58.3	58.3	87	54.4	0	2	248	0.00	29.784 
01:40	58.3	58.3	58.3	87	54.4	0	3	248	0.00	29.784 
01:45	58.4	58.4	58.4	87	54.5	0	2	248	0.00	29.781 
01:50	58.4	58.4	58.4	86	54.2	0	1	248	0.00	29.781 
01:55	58.4	58.4	58.4	86	54.2	0	2	248	0.00	29.781 
02:00	58.4	58.4	58.4	86	54.2	0	2	248	0.00	29.779 
02:05	58.4	58.4	58.4	86	54.2	0	1	248	0.00	29.779 
02:10	58.4	58.4	58.4	86	54.2	0	2	248	0.00	29.779 
02:15	58.6	58.6	58.6	86	54.4	0	1	248	0.00	29.776 
02:20	58.6	58.6	58.6	86	54.4	0	1	248	0.00	29.776 
02:25	58.7	58.7	58.7	85	54.2	0	1	248	0.00	29.776 
02:30	58.7	58.7	58.7	85	54.2	0	1	248	0.00	29.767 
02:35	58.7	58.7	58.7	85	54.2	0	1	248	0.00	29.767 
02:40	58.6	58.6	58.6	85	54.1	0	1	248	0.00	29.767 
02:45	58.6	58.6	58.6	85	54.1	0	0	---	0.00	29.758 
02:50	58.6	58.6	58.6	85	54.1	0	1	248	0.00	29.758 
02:55	58.6	58.6	58.6	85	54.1	0	1	248	0.00	29.758 
03:00	58.4	58.4	58.4	85	53.9	0	1	248	0.00	29.746 
03:05	58.4	58.4	58.4	86	54.2	0	0	---	0.00	29.746 
03:10	58.3	58.3	58.3	86	54.1	0	0	---	0.00	29.746 
03:15	58.3	58.3	58.3	86	54.1	0	0	---	0.00	29.754 
03:20	58.1	58.1	58.1	87	54.2	0	2	248	0.00	29.754 
03:25	58.3	58.3	58.3	87	54.4	0	1	248	0.00	29.754 
03:30	58.4	58.4	58.4	87	54.5	0	2	248	0.00	29.765 
03:35	58.6	58.6	58.6	87	54.7	0	3	248	0.00	29.765 
03:40	58.7	58.7	58.7	87	54.8	0	1	248	0.00	29.765 
03:45	58.7	58.7	58.7	87	54.8	0	3	248	0.00	29.751 
03:50	58.7	58.7	58.7	87	54.8	1	5	315	0.00	29.751 
03:55	58.9	58.9	58.9	87	55.0	1	3	292	0.00	29.751 
04:00	59.0	59.0	59.0	86	54.8	0	1	292	0.00	29.756 
04:05	59.2	59.2	59.2	86	55.0	0	1	292	0.00	29.756 
04:10	59.3	59.3	59.3	86	55.1	0	1	292	0.00	29.756 
04:15	59.3	59.3	59.3	86	55.1	0	2	292	0.00	29.765 
04:20	59.5	59.5	59.5	86	55.3	0	2	270	0.00	29.765 
04:25	60.1	60.1	60.1	85	55.6	2	6	248	0.00	29.765 
04:30	60.5	60.5	60.5	84	55.6	1	4	248	0.00	29.752 
04:35	60.7	60.7	60.7	84	55.8	0	3	292	0.00	29.752 
04:40	60.7	60.7	60.7	84	55.8	1	4	248	0.00	29.752 
04:45	60.7	60.7	60.7	84	55.8	1	4	248	0.00	29.748 
04:50	60.7	60.7	60.7	84	55.8	0	2	248	0.00	29.748 
04:55	60.7	60.7	60.7	84	55.8	0	1	248	0.00	29.748 
05:00	60.7	60.7	60.7	85	56.2	0	2	248	0.00	29.740 
05:05	60.5	60.5	60.5	85	56.0	0	1	248	0.00	29.740 
05:10	60.5	60.5	60.5	85	56.0	0	1	248	0.00	29.740 
05:15	60.4	60.4	60.4	85	55.9	0	1	248	0.00	29.739 
05:20	60.2	60.2	60.2	86	56.0	0	2	248	0.00	29.739 
05:25	60.2	60.2	60.2	87	56.3	0	1	248	0.00	29.739 
05:30	60.2	60.2	60.2	87	56.3	0	1	248	0.00	29.738 
05:35	60.1	60.1	60.1	87	56.2	0	0	---	0.00	29.738 
05:40	59.9	59.9	59.9	87	56.0	0	1	248	0.00	29.738 
05:45	59.8	59.8	59.8	88	56.2	0	0	---	0.00	29.732 
05:50	59.6	59.6	59.6	88	56.0	0	1	248	0.00	29.732 
05:55	59.5	59.5	59.5	88	55.9	0	1	248	0.00	29.732 
06:00	59.3	59.3	59.3	89	56.1	0	1	248	0.00	29.728 
06:05	59.2	59.2	59.2	89	56.0	0	0	---	0.00	29.728 
06:10	58.9	58.9	58.9	89	55.7	0	0	---	0.00	29.728 
06:15	58.7	58.7	58.7	89	55.5	0	0	---	0.00	29.733 
06:20	58.3	58.3	58.3	89	55.1	0	0	---	0.00	29.733 
06:25	58.0	58.0	58.0	89	54.8	0	0	---	0.00	29.733 
06:30	57.6	57.6	57.6	90	54.7	0	0	---	0.00	29.729 
06:35	57.3	57.3	57.3	90	54.4	0	0	---	0.00	29.729 
06:40	57.0	57.0	57.0	91	54.4	0	0	---	0.00	29.729 
06:45	56.9	56.9	56.9	91	54.3	0	0	---	0.00	29.734 
06:50	56.6	56.6	56.6	91	54.0	0	0	---	0.00	29.734 
06:55	56.3	56.3	56.3	91	53.7	0	0	---	0.00	29.734 
07:00	56.0	56.0	56.0	92	53.7	0	0	---	0.00	29.738 
07:05	55.9	55.9	55.9	92	53.6	0	0	---	0.00	29.738 
07:10	55.9	55.9	55.9	92	53.6	0	0	---	0.00	29.738 
07:15	55.9	55.9	55.9	92	53.6	0	0	---	0.00	29.737 
07:20	55.9	55.9	55.9	93	53.9	0	0	---	0.00	29.737 
07:25	55.9	55.9	55.9	93	53.9	0	0	---	0.00	29.737 
07:30	56.3	56.3	56.3	94	54.6	0	0	---	0.00	29.733 
07:35	57.0	57.0	57.0	94	55.3	0	0	---	0.00	29.733 
07:40	57.5	57.5	57.5	94	55.8	0	0	---	0.00	29.733 
07:45	58.3	58.3	58.3	94	56.6	0	0	---	0.00	29.739 
07:50	58.9	58.9	58.9	94	57.2	0	1	248	0.00	29.739 
07:55	59.3	59.3	59.3	94	57.6	0	1	248	0.00	29.739 
08:00	59.8	59.8	59.8	93	57.8	0	1	248	0.00	29.739 
08:05	60.2	60.2	60.2	93	58.2	0	1	248	0.00	29.739 
08:10	60.5	60.5	60.5	92	58.2	0	1	248	0.00	29.739 
08:15	60.7	60.7	60.7	90	57.7	0	1	248	0.00	29.743 
08:20	61.0	61.0	61.0	89	57.7	0	2	248	0.00	29.743 
08:25	61.6	61.6	61.6	88	58.0	0	2	248	0.00	29.743 
08:30	62.0	62.0	62.0	87	58.1	0	1	248	0.00	29.748 
08:35	62.3	62.3	62.3	86	58.1	0	1	248	0.00	29.748 
08:40	62.4	62.4	62.4	84	57.5	0	1	248	0.00	29.748 
08:45	62.7	62.7	62.7	84	57.8	0	1	248	0.00	29.739 
08:50	63.2	63.2	63.2	82	57.6	0	1	248	0.00	29.739 
08:55	63.9	63.9	63.9	81	57.9	0	1	248	0.00	29.739 
09:00	64.3	64.3	64.3	80	58.0	0	1	248	0.00	29.728 
09:05	65.2	65.2	65.2	78	58.2	0	1	248	0.00	29.728 
09:10	65.6	65.6	65.6	76	57.8	0	2	248	0.00	29.728 
09:15	66.4	66.4	66.4	73	57.5	0	2	225	0.00	29.729 
09:20	67.1	67.1	67.1	71	57.4	0	1	225	0.00	29.729 
09:25	67.4	67.4	67.4	69	56.9	1	2	202	0.00	29.729 
09:30	67.8	67.8	67.8	69	57.2	0	1	202	0.00	29.727 
09:35	68.3	68.3	68.3	68	57.3	1	2	180	0.00	29.727 
09:40	68.6	68.6	68.6	68	57.6	0	1	180	0.00	29.727 
09:45	68.8	68.8	68.8	68	57.8	0	3	180	0.00	29.735 
09:50	68.8	68.8	68.8	66	57.0	0	3	248	0.00	29.735 
09:55	68.8	68.8	68.8	67	57.4	1	3	112	0.00	29.735 
10:00	67.8	67.8	67.8	66	56.0	1	4	248	0.00	29.743 
10:05	67.3	67.3	67.3	70	57.2	0	1	248	0.00	29.743 
10:10	67.3	67.3	67.3	69	56.8	1	3	270	0.00	29.743 
10:15	67.6	67.6	67.6	68	56.7	0	2	270	0.00	29.745 
10:20	67.8	67.8	67.8	68	56.8	0	1	270	0.00	29.745 
10:25	68.1	68.1	68.1	66	56.3	0	2	270	0.00	29.745 
10:30	68.3	68.3	68.3	65	56.1	1	3	270	0.00	29.745 
10:35	68.3	68.3	68.3	67	56.9	0	3	270	0.00	29.745 
10:40	68.3	68.3	68.3	67	56.9	1	3	270	0.00	29.745 
10:45	68.1	68.1	68.1	65	55.9	1	4	270	0.00	29.747 
10:50	68.1	68.1	68.1	65	55.9	1	3	248	0.00	29.747 
10:55	68.3	68.3	68.3	67	56.9	1	4	248	0.00	29.747 
11:00	68.4	68.4	68.4	66	56.6	0	2	248	0.00	29.759 
11:05	68.6	68.6	68.6	67	57.2	1	3	248	0.00	29.759 
11:10	68.8	68.8	68.8	66	57.0	1	2	248	0.00	29.759 
11:15	69.1	69.1	69.1	67	57.7	1	4	248	0.00	29.758 
11:20	69.1	69.1	69.1	65	56.8	1	3	248	0.00	29.758 
11:25	69.1	69.1	69.1	66	57.3	1	3	225	0.00	29.758 
11:30	69.1	69.1	69.1	66	57.3	1	4	292	0.00	29.770 
11:35	68.9	68.9	68.9	66	57.1	1	3	248	0.00	29.770 
11:40	68.9	68.9	68.9	67	57.5	1	2	248	0.00	29.770 
11:45	68.9	68.9	68.9	65	56.6	1	4	248	0.00	29.773 
11:50	68.9	68.9	68.9	66	57.1	1	4	270	0.00	29.773 
11:55	68.9	68.9	68.9	65	56.6	1	5	248	0.00	29.773 
12:00	68.9	68.9	68.9	65	56.6	1	5	248	0.00	29.762 
12:05	68.9	68.9	68.9	66	57.1	1	3	270	0.00	29.762 
12:10	68.9	68.9	68.9	66	57.1	1	3	248	0.00	29.762 
12:15	69.1	69.1	69.1	67	57.7	1	3	248	0.00	29.773 
12:20	69.3	69.3	69.3	66	57.4	0	2	248	0.00	29.773 
12:25	69.4	69.4	69.4	66	57.5	1	4	248	0.00	29.773 
12:30	69.3	69.3	69.3	66	57.4	1	3	248	0.00	29.766 
12:35	69.4	69.4	69.4	66	57.5	0	2	248	0.00	29.766 
12:40	69.4	69.4	69.4	66	57.5	1	3	248	0.00	29.766 
12:45	69.4	69.4	69.4	65	57.1	1	3	248	0.00	29.762 
12:50	69.6	69.6	69.6	67	58.1	1	2	315	0.00	29.762 
12:55	69.6	69.6	69.6	65	57.3	1	3	225	0.00	29.762 
13:00	69.6	69.6	69.6	65	57.3	1	3	270	0.00	29.760 
13:05	69.8	69.8	69.8	65	57.5	1	3	248	0.00	29.760 
13:10	69.9	69.9	69.9	66	58.0	1	4	248	0.00	29.760 
13:15	70.1	70.1	70.1	64	57.3	1	3	270	0.00	29.755 
13:20	69.9	69.9	69.9	64	57.2	1	3	270	0.00	29.755 
13:25	69.9	69.9	69.9	63	56.7	1	2	270	0.00	29.755 
13:30	70.1	70.1	70.1	64	57.3	1	2	270	0.00	29.745 
13:35	70.3	70.3	70.3	64	57.5	1	2	270	0.00	29.745 
13:40	70.4	70.4	70.4	64	57.6	1	3	248	0.00	29.745 
13:45	70.6	70.6	70.6	64	57.8	0	2	248	0.00	29.748 
13:50	70.4	70.4	70.4	63	57.2	1	3	248	0.00	29.748 
13:55	70.3	70.3	70.3	63	57.1	1	3	270	0.00	29.748 
14:00	70.1	70.1	70.1	64	57.3	0	2	270	0.00	29.742 
14:05	69.9	69.9	69.9	63	56.7	1	5	270	0.00	29.742 
14:10	69.8	69.8	69.8	63	56.6	1	3	248	0.00	29.742 
14:15	69.8	69.8	69.8	63	56.6	1	2	248	0.00	29.727 
14:20	69.8	69.8	69.8	64	57.1	0	1	248	0.00	29.727 
14:25	69.6	69.6	69.6	64	56.9	0	3	248	0.00	29.727 
14:30	69.6	69.6	69.6	65	57.3	0	2	248	0.00	29.710 
14:35	69.8	69.8	69.8	65	57.5	0	1	248	0.00	29.710 
14:40	69.8	69.8	69.8	64	57.1	0	2	248	0.00	29.710 
14:45	69.9	69.9	69.9	65	57.6	0	1	248	0.00	29.691 
14:50	70.1	70.1	70.1	64	57.3	0	1	248	0.00	29.691 
14:55	70.3	70.3	70.3	64	57.5	0	1	248	0.00	29.691 
15:00	70.3	70.3	70.3	62	56.7	0	2	248	0.00	29.696 
15:05	70.1	70.1	70.1	63	56.9	0	2	248	0.00	29.696 
15:10	69.9	69.9	69.9	64	57.2	1	2	248	0.00	29.696 
15:15	69.9	69.9	69.9	65	57.6	0	2	248	0.00	29.698 
15:20	69.9	69.9	69.9	63	56.7	0	1	248	0.00	29.698 
15:25	70.3	70.3	70.3	64	57.5	0	1	248	0.00	29.698 
15:30	70.3	70.3	70.3	63	57.1	0	1	248	0.00	29.697 
15:35	70.4	70.4	70.4	62	56.7	0	1	248	0.00	29.697 
15:40	70.6	70.6	70.6	64	57.8	0	1	248	0.00	29.697 
15:45	70.4	70.4	70.4	63	57.2	0	1	248	0.00	29.697 
15:50	70.4	70.4	70.4	63	57.2	0	1	248	0.00	29.697 
15:55	70.4	70.4	70.4	64	57.6	0	1	248	0.00	29.697 
16:00	70.1	70.1	70.1	63	56.9	0	1	248	0.00	29.698 
16:05	70.1	70.1	70.1	65	57.8	0	1	248	0.00	29.698 
16:10	70.3	70.3	70.3	65	58.0	0	1	248	0.00	29.698 
16:15	70.4	70.4	70.4	64	57.6	0	2	248	0.00	29.706 
16:20	70.4	70.4	70.4	64	57.6	0	3	270	0.00	29.706 
16:25	70.4	70.4	70.4	64	57.6	0	2	270	0.00	29.706 
16:30	70.4	70.4	70.4	65	58.1	0	1	270	0.00	29.696 
16:35	70.3	70.3	70.3	64	57.5	0	1	270	0.00	29.696 
16:40	69.9	69.9	69.9	66	58.0	0	2	270	0.00	29.696 
16:45	69.4	69.4	69.4	74	60.7	1	4	112	0.06	29.696 
16:50	67.6	67.6	67.6	78	60.5	0	2	112	0.02	29.696 
16:55	66.4	66.4	66.4	83	61.1	0	2	112	0.00	29.696 
17:00	65.8	65.8	65.8	86	61.5	0	1	112	0.00	29.700 
17:05	65.5	65.5	65.5	87	61.5	0	0	---	0.00	29.700 
17:10	65.3	65.3	65.3	88	61.6	0	1	112	0.00	29.700 
17:15	65.2	65.2	65.2	89	61.9	0	1	112	0.01	29.698 
17:20	65.2	65.2	65.2	90	62.2	0	1	112	0.00	29.698 
17:25	65.2	65.2	65.2	91	62.5	0	1	112	0.00	29.698 
17:30	65.2	65.2	65.2	91	62.5	0	0	---	0.00	29.686 
17:35	65.5	65.5	65.5	92	63.1	0	0	---	0.00	29.686 
17:40	65.6	65.6	65.6	92	63.2	0	0	---	0.00	29.686 
17:45	65.6	65.6	65.6	92	63.2	0	1	112	0.00	29.657 
17:50	65.5	65.5	65.5	92	63.1	0	1	112	0.00	29.657 
17:55	65.5	65.5	65.5	92	63.1	0	0	---	0.00	29.657 
18:00	65.3	65.3	65.3	92	62.9	0	0	---	0.00	29.668 
18:05	65.5	65.5	65.5	91	62.8	0	0	---	0.00	29.668 
18:10	65.6	65.6	65.6	91	62.9	0	0	---	0.00	29.668 
18:15	65.8	65.8	65.8	91	63.1	0	1	112	0.00	29.683 
18:20	65.8	65.8	65.8	90	62.8	0	1	112	0.00	29.683 
18:25	65.8	65.8	65.8	90	62.8	0	0	---	0.00	29.683 
18:30	65.8	65.8	65.8	90	62.8	0	1	112	0.00	29.689 
18:35	66.0	66.0	66.0	91	63.3	0	0	---	0.00	29.689 
18:40	65.8	65.8	65.8	90	62.8	0	1	112	0.00	29.689 
18:45	65.8	65.8	65.8	90	62.8	0	1	112	0.00	29.687 
18:50	65.8	65.8	65.8	90	62.8	0	1	112	0.00	29.687 
18:55	65.6	65.6	65.6	90	62.6	0	1	112	0.00	29.687 
19:00	65.6	65.6	65.6	90	62.6	0	1	112	0.00	29.693 
19:05	65.6	65.6	65.6	90	62.6	0	0	---	0.00	29.693 
19:10	65.6	65.6	65.6	89	62.3	0	0	---	0.00	29.693 
19:15	65.5	65.5	65.5	90	62.5	0	0	---	0.00	29.688 
19:20	65.5	65.5	65.5	90	62.5	0	0	---	0.00	29.688 
19:25	65.3	65.3	65.3	90	62.3	0	0	---	0.00	29.688 
19:30	65.3	65.3	65.3	90	62.3	0	0	---	0.00	29.689 
19:35	65.3	65.3	65.3	90	62.3	0	0	---	0.00	29.689 
19:40	65.3	65.3	65.3	90	62.3	0	0	---	0.00	29.689 
19:45	65.3	65.3	65.3	91	62.6	0	0	---	0.00	29.696 
19:50	65.2	65.2	65.2	91	62.5	0	0	---	0.00	29.696 
19:55	65.2	65.2	65.2	91	62.5	0	0	---	0.00	29.696 
20:00	65.2	65.2	65.2	91	62.5	0	0	---	0.00	29.695 
20:05	65.0	65.0	65.0	91	62.3	0	0	---	0.00	29.695 
20:10	65.0	65.0	65.0	91	62.3	0	0	---	0.00	29.695 
20:15	64.8	64.8	64.8	91	62.1	0	0	---	0.00	29.690 
20:20	64.7	64.7	64.7	91	62.0	0	0	---	0.00	29.690 
20:25	64.7	64.7	64.7	91	62.0	0	0	---	0.00	29.690 
20:30	64.5	64.5	64.5	91	61.8	0	0	---	0.00	29.694 
20:35	64.3	64.3	64.3	91	61.6	0	0	---	0.00	29.694 
20:40	64.3	64.3	64.3	92	61.9	0	0	---	0.00	29.694 
20:45	64.2	64.2	64.2	92	61.8	0	0	---	0.00	29.696 
20:50	64.2	64.2	64.2	92	61.8	0	0	---	0.00	29.696 
20:55	64.2	64.2	64.2	92	61.8	0	0	---	0.00	29.696 
21:00	64.0	64.0	64.0	92	61.6	0	0	---	0.00	29.697 
21:05	64.0	64.0	64.0	92	61.6	0	0	---	0.00	29.697 
21:10	63.9	63.9	63.9	92	61.5	0	0	---	0.00	29.697 
21:15	63.7	63.7	63.7	92	61.3	0	0	---	0.00	29.695 
21:20	63.7	63.7	63.7	93	61.6	0	0	---	0.00	29.695 
21:25	63.7	63.7	63.7	93	61.6	0	0	---	0.00	29.695 
21:30	63.5	63.5	63.5	93	61.4	0	0	---	0.00	29.697 
21:35	63.4	63.4	63.4	93	61.3	0	0	---	0.00	29.697 
21:40	63.4	63.4	63.4	93	61.3	0	0	---	0.00	29.697 
21:45	63.4	63.4	63.4	93	61.3	0	0	---	0.00	29.699 
21:50	63.2	63.2	63.2	93	61.1	0	0	---	0.00	29.699 
21:55	63.2	63.2	63.2	93	61.1	0	0	---	0.00	29.699 
22:00	63.2	63.2	63.2	93	61.1	0	0	---	0.00	29.700 
22:05	63.1	63.1	63.1	93	61.0	0	0	---	0.00	29.700 
22:10	63.1	63.1	63.1	93	61.0	0	0	---	0.00	29.700 
22:15	62.9	62.9	62.9	93	60.8	0	0	---	0.00	29.698 
22:20	62.9	62.9	62.9	94	61.1	0	0	---	0.00	29.698 
22:25	62.7	62.7	62.7	94	60.9	0	0	---	0.00	29.698 
22:30	62.7	62.7	62.7	94	60.9	0	0	---	0.00	29.697 
22:35	62.6	62.6	62.6	94	60.8	0	0	---	0.00	29.697 
22:40	62.6	62.6	62.6	94	60.8	0	0	---	0.00	29.697 
22:45	62.7	62.7	62.7	94	60.9	0	0	---	0.00	29.702 
22:50	62.6	62.6	62.6	94	60.8	0	0	---	0.00	29.702 
22:55	62.6	62.6	62.6	94	60.8	0	0	---	0.00	29.702 
23:00	62.4	62.4	62.4	94	60.6	0	0	---	0.00	29.695 
23:05	62.3	62.3	62.3	94	60.5	0	0	---	0.00	29.695 
23:10	62.1	62.1	62.1	94	60.3	0	0	---	0.00	29.695 
23:15	61.8	61.8	61.8	94	60.1	0	0	---	0.00	29.695 
23:20	61.6	61.6	61.6	94	59.9	0	0	---	0.00	29.695 
23:25	61.3	61.3	61.3	94	59.6	0	0	---	0.00	29.695 
23:30	61.0	61.0	61.0	94	59.3	0	0	---	0.00	29.695 
23:35	60.7	60.7	60.7	94	59.0	0	0	---	0.00	29.695 
23:40	60.5	60.5	60.5	94	58.8	0	0	---	0.00	29.695 
23:45	60.2	60.2	60.2	94	58.5	0	0	---	0.00	29.695 
23:50	60.1	60.1	60.1	94	58.4	0	0	---	0.00	29.695 
23:55	59.8	59.8	59.8	94	58.1	0	0	---	0.00	29.695 

CoCoRaHS
IN-AL-39
A2 Web Hosting
Creative Commons License
GoDaddy
search engine by freefind advanced

loaded 2018-11-15 15:45:03 • last modified 2010-11-18 10:43:29
Privacy PolicyDisclaimer
• wx.awcolley.com is powered by PmWiki v.2002016 •
• all content (unless otherwise noted) © 2018 A W Colley